createdAt,value
2019-04-22T00:00:28.950Z,14.10
2019-04-22T00:02:58.124Z,14.00
2019-04-22T00:05:44.384Z,14.00
2019-04-22T00:08:16.734Z,13.90
2019-04-22T00:10:54.209Z,13.90
2019-04-22T00:13:25.994Z,13.80
2019-04-22T00:15:53.870Z,13.80
2019-04-22T00:18:30.460Z,13.80
2019-04-22T00:20:58.395Z,13.70
2019-04-22T00:23:24.554Z,13.60
2019-04-22T00:26:01.978Z,13.60
2019-04-22T00:28:32.127Z,13.50
2019-04-22T00:31:03.866Z,13.50
2019-04-22T00:33:31.243Z,13.50
2019-04-22T00:36:08.899Z,13.50
2019-04-22T00:38:42.495Z,13.50
2019-04-22T00:41:13.157Z,13.40
2019-04-22T00:43:39.553Z,13.40
2019-04-22T00:46:15.627Z,13.30
2019-04-22T00:48:48.619Z,13.30
2019-04-22T00:51:13.900Z,13.30
2019-04-22T00:53:42.867Z,13.30
2019-04-22T00:56:32.617Z,13.30
2019-04-22T00:59:06.793Z,13.20
2019-04-22T01:01:37.133Z,13.20
2019-04-22T01:04:14.327Z,13.10
2019-04-22T01:06:47.312Z,13.10
2019-04-22T01:09:18.876Z,13.10
2019-04-22T01:11:44.925Z,13.00
2019-04-22T01:14:21.995Z,13.00
2019-04-22T01:16:53.811Z,13.00
2019-04-22T01:19:21.579Z,12.90
2019-04-22T01:21:52.317Z,12.90
2019-04-22T01:24:25.225Z,12.80
2019-04-22T01:26:49.507Z,12.80
2019-04-22T01:29:14.634Z,12.80
2019-04-22T01:31:40.027Z,12.70
2019-04-22T01:34:23.403Z,12.70
2019-04-22T01:36:59.423Z,12.60
2019-04-22T01:39:37.616Z,12.60
2019-04-22T01:44:42.187Z,12.50
2019-04-22T01:47:12.827Z,12.50
2019-04-22T01:49:44.137Z,12.40
2019-04-22T01:52:11.456Z,12.40
2019-04-22T01:57:09.898Z,12.40
2019-04-22T01:59:41.614Z,12.40
2019-04-22T02:02:18.934Z,12.30
2019-04-22T02:05:07.325Z,12.30
2019-04-22T02:09:49.602Z,12.30
2019-04-22T02:12:20.005Z,12.30
2019-04-22T02:14:52.308Z,12.30
2019-04-22T02:17:26.490Z,12.30
2019-04-22T02:22:29.147Z,12.20
2019-04-22T02:24:59.043Z,12.20
2019-04-22T02:27:34.670Z,12.20
2019-04-22T02:29:52.215Z,12.20
2019-04-22T02:35:03.739Z,12.10
2019-04-22T02:37:27.793Z,12.10
2019-04-22T02:42:43.540Z,12.00
2019-04-22T02:45:07.116Z,12.00
2019-04-22T02:47:42.239Z,12.00
2019-04-22T02:50:07.397Z,12.00
2019-04-22T02:52:37.959Z,12.00
2019-04-22T02:55:21.041Z,12.00
2019-04-22T02:57:45.070Z,11.90
2019-04-22T03:00:27.247Z,11.90
2019-04-22T03:03:04.168Z,11.90
2019-04-22T03:05:27.994Z,11.80
2019-04-22T03:08:00.400Z,11.80
2019-04-22T03:10:32.699Z,11.70
2019-04-22T03:12:55.930Z,11.70
2019-04-22T03:15:27.784Z,11.60
2019-04-22T03:18:01.316Z,11.60
2019-04-22T03:20:41.559Z,11.60
2019-04-22T03:23:05.857Z,11.50
2019-04-22T03:28:05.657Z,11.40
2019-04-22T03:33:12.270Z,11.20
2019-04-22T03:38:04.903Z,11.10
2019-04-22T03:40:44.716Z,11.10
2019-04-22T03:48:09.307Z,11.10
2019-04-22T03:50:39.087Z,11.10
2019-04-22T03:53:32.659Z,11.10
2019-04-22T03:55:59.778Z,11.20
2019-04-22T03:58:21.855Z,11.20
2019-04-22T04:00:55.520Z,11.20
2019-04-22T04:03:55.239Z,11.20
2019-04-22T04:06:00.190Z,11.20
2019-04-22T04:08:38.890Z,11.20
2019-04-22T04:13:34.350Z,11.10
2019-04-22T04:16:07.887Z,11.10
2019-04-22T04:18:39.603Z,11.20
2019-04-22T04:26:19.574Z,11.30
2019-04-22T04:31:17.687Z,11.40
2019-04-22T04:33:38.199Z,11.30
2019-04-22T04:41:23.146Z,11.30
2019-04-22T04:46:32.245Z,11.40
2019-04-22T04:49:08.940Z,11.40
2019-04-22T04:53:58.158Z,11.40
2019-04-22T04:56:34.429Z,11.40
2019-04-22T04:59:05.714Z,11.40
2019-04-22T05:04:05.039Z,11.40
2019-04-22T05:06:33.117Z,11.40
2019-04-22T05:11:37.275Z,11.50
2019-04-22T05:16:46.455Z,11.60
2019-04-22T05:24:15.057Z,11.80
2019-04-22T05:26:37.477Z,11.90
2019-04-22T05:29:05.482Z,12.00
2019-04-22T05:31:37.210Z,12.20
2019-04-22T05:34:08.189Z,12.30
2019-04-22T05:36:42.575Z,12.50
2019-04-22T05:41:41.427Z,13.20
2019-04-22T05:46:45.679Z,14.10
2019-04-22T05:49:25.749Z,14.40
2019-04-22T05:51:42.051Z,14.60
2019-04-22T05:54:17.259Z,14.70
2019-04-22T05:56:41.250Z,14.80
2019-04-22T06:01:54.471Z,15.10
2019-04-22T06:04:19.815Z,15.30
2019-04-22T06:06:39.987Z,15.20
2019-04-22T06:09:14.754Z,15.30
2019-04-22T06:11:36.261Z,15.50
2019-04-22T06:14:20.426Z,15.60
2019-04-22T06:16:59.183Z,15.70
2019-04-22T06:19:37.990Z,15.80
2019-04-22T06:21:56.015Z,16.00
2019-04-22T06:24:27.604Z,16.20
2019-04-22T06:27:10.224Z,16.30
2019-04-22T06:29:33.490Z,16.30
2019-04-22T06:32:26.493Z,16.50
2019-04-22T06:34:42.251Z,16.70
2019-04-22T06:37:13.412Z,16.80
2019-04-22T06:39:36.947Z,16.90
2019-04-22T06:42:19.539Z,17.00
2019-04-22T06:44:43.082Z,17.10
2019-04-22T06:47:14.590Z,17.10
2019-04-22T06:49:41.949Z,17.10
2019-04-22T06:52:17.746Z,17.00
2019-04-22T06:54:59.574Z,17.00
2019-04-22T06:57:13.834Z,17.00
2019-04-22T06:59:45.121Z,17.10
2019-04-22T07:02:16.555Z,17.30
2019-04-22T07:04:55.156Z,17.40
2019-04-22T07:07:17.092Z,17.50
2019-04-22T07:09:48.581Z,17.40
2019-04-22T07:14:48.866Z,17.30
2019-04-22T07:17:22.156Z,17.30
2019-04-22T07:19:47.210Z,17.40
2019-04-22T07:22:25.451Z,17.40
2019-04-22T07:24:55.904Z,17.40
2019-04-22T07:27:22.181Z,17.50
2019-04-22T07:30:01.914Z,17.50
2019-04-22T07:32:53.795Z,17.70
2019-04-22T07:35:10.633Z,17.80
2019-04-22T07:40:06.895Z,18.00
2019-04-22T07:42:40.723Z,18.10
2019-04-22T07:45:23.730Z,18.40
2019-04-22T07:47:44.621Z,18.70
2019-04-22T07:50:26.316Z,19.00
2019-04-22T07:52:49.590Z,19.40
2019-04-22T07:55:25.556Z,19.90
2019-04-22T07:57:51.802Z,20.40
2019-04-22T08:00:28.118Z,20.70
2019-04-22T08:02:59.721Z,21.00
2019-04-22T08:05:26.091Z,21.30
2019-04-22T08:07:52.484Z,21.50
2019-04-22T08:10:35.320Z,21.60
2019-04-22T08:12:57.927Z,21.80
2019-04-22T08:15:27.596Z,21.80
2019-04-22T08:18:06.920Z,22.00
2019-04-22T08:20:30.778Z,22.30
2019-04-22T08:23:04.415Z,22.60
2019-04-22T08:25:32.930Z,22.90
2019-04-22T08:28:03.055Z,23.10
2019-04-22T08:30:44.469Z,23.20
2019-04-22T08:33:13.797Z,23.40
2019-04-22T08:35:52.426Z,23.70
2019-04-22T08:38:12.021Z,23.70
2019-04-22T08:40:50.155Z,24.00
2019-04-22T08:43:24.788Z,24.30
2019-04-22T08:48:16.445Z,24.40
2019-04-22T08:50:58.707Z,24.60
2019-04-22T08:53:41.572Z,24.70
2019-04-22T08:55:58.208Z,24.70
2019-04-22T09:03:23.958Z,25.10
2019-04-22T09:08:32.591Z,25.60
2019-04-22T09:10:58.515Z,25.70
2019-04-22T09:13:30.050Z,25.70
2019-04-22T09:15:55.497Z,26.00
2019-04-22T09:18:34.500Z,26.20
2019-04-22T09:21:07.095Z,26.20
2019-04-22T09:23:30.433Z,26.20
2019-04-22T09:25:53.529Z,26.30
2019-04-22T09:28:34.515Z,26.60
2019-04-22T09:31:01.817Z,27.10
2019-04-22T09:33:27.447Z,27.40
2019-04-22T09:36:12.798Z,27.60
2019-04-22T09:41:00.000Z,27.80
2019-04-22T09:43:41.039Z,27.80
2019-04-22T09:45:58.131Z,27.70
2019-04-22T09:48:37.497Z,28.00
2019-04-22T09:51:03.539Z,28.30
2019-04-22T09:53:36.537Z,28.20
2019-04-22T09:56:08.049Z,28.20
2019-04-22T09:58:40.085Z,28.30
2019-04-22T10:03:44.952Z,27.90
2019-04-22T10:06:22.566Z,27.90
2019-04-22T10:11:23.970Z,27.70
2019-04-22T10:13:47.667Z,27.70
2019-04-22T10:16:27.189Z,27.70
2019-04-22T10:18:52.915Z,27.50
2019-04-22T10:21:27.425Z,27.50
2019-04-22T10:23:59.544Z,27.70
2019-04-22T10:26:34.889Z,28.00
2019-04-22T10:31:38.145Z,28.50
2019-04-22T10:33:53.279Z,28.50
2019-04-22T10:36:09.782Z,28.60
2019-04-22T10:38:38.360Z,28.70
2019-04-22T10:41:08.285Z,28.90
2019-04-22T10:43:39.173Z,28.60
2019-04-22T10:46:10.542Z,28.50
2019-04-22T10:48:44.162Z,28.40
2019-04-22T10:51:14.693Z,28.70
2019-04-22T10:53:44.990Z,28.90
2019-04-22T10:56:16.851Z,29.10
2019-04-22T10:58:46.680Z,29.00
2019-04-22T11:01:17.858Z,28.50
2019-04-22T11:03:46.557Z,28.30
2019-04-22T11:06:15.130Z,28.20
2019-04-22T11:08:52.362Z,28.00
2019-04-22T11:11:30.122Z,27.70
2019-04-22T11:13:45.899Z,27.60
2019-04-22T11:16:17.422Z,27.60
2019-04-22T11:18:47.441Z,27.90
2019-04-22T11:21:17.789Z,28.10
2019-04-22T11:23:46.922Z,28.00
2019-04-22T11:26:17.721Z,28.10
2019-04-22T11:28:49.595Z,27.80
2019-04-22T11:31:18.755Z,27.80
2019-04-22T11:33:52.437Z,27.60
2019-04-22T11:36:21.765Z,28.00
2019-04-22T11:38:56.465Z,28.40
2019-04-22T11:41:25.557Z,28.60
2019-04-22T11:43:54.282Z,28.90
2019-04-22T11:46:23.215Z,29.10
2019-04-22T11:48:51.974Z,29.10
2019-04-22T11:51:22.046Z,29.20
2019-04-22T11:53:52.595Z,29.40
2019-04-22T11:56:22.644Z,29.40
2019-04-22T11:58:52.951Z,29.50
2019-04-22T12:01:21.713Z,29.60
2019-04-22T12:03:51.763Z,29.50
2019-04-22T12:06:21.965Z,29.50
2019-04-22T12:08:54.199Z,29.30
2019-04-22T12:11:23.525Z,29.20
2019-04-22T12:13:55.756Z,29.20
2019-04-22T12:16:29.918Z,29.30
2019-04-22T12:19:00.871Z,29.00
2019-04-22T12:21:30.921Z,29.00
2019-04-22T12:24:01.616Z,28.80
2019-04-22T12:26:30.665Z,28.90
2019-04-22T12:29:00.283Z,29.10
2019-04-22T12:31:29.313Z,29.20
2019-04-22T12:33:59.317Z,29.10
2019-04-22T12:36:28.673Z,28.60
2019-04-22T12:38:57.820Z,28.50
2019-04-22T12:41:27.679Z,28.50
2019-04-22T12:43:57.279Z,28.40
2019-04-22T12:46:26.161Z,28.20
2019-04-22T12:48:56.264Z,28.00
2019-04-22T12:51:25.021Z,27.70
2019-04-22T12:53:55.135Z,27.50
2019-04-22T12:56:23.911Z,27.60
2019-04-22T12:58:56.306Z,27.90
2019-04-22T13:01:26.875Z,28.30
2019-04-22T13:04:02.061Z,28.50
2019-04-22T13:06:30.165Z,28.70
2019-04-22T13:09:00.036Z,28.60
2019-04-22T13:11:34.778Z,28.70
2019-04-22T13:14:05.052Z,29.20
2019-04-22T13:16:33.385Z,29.60
2019-04-22T13:19:07.370Z,29.80
2019-04-22T13:21:33.174Z,29.90
2019-04-22T13:24:04.733Z,30.00
2019-04-22T13:26:33.825Z,30.20
2019-04-22T13:29:05.199Z,30.00
2019-04-22T13:31:38.050Z,29.90
2019-04-22T13:34:13.317Z,30.20
2019-04-22T13:36:41.082Z,30.40
2019-04-22T13:39:09.055Z,30.50
2019-04-22T13:41:46.566Z,30.30
2019-04-22T13:44:09.092Z,30.00
2019-04-22T13:46:38.747Z,29.90
2019-04-22T13:49:40.542Z,29.80
2019-04-22T13:52:18.837Z,29.80
2019-04-22T13:56:56.868Z,30.10
2019-04-22T13:59:20.583Z,30.20
2019-04-22T14:01:58.844Z,30.00
2019-04-22T14:04:34.576Z,29.90
2019-04-22T14:07:00.764Z,29.70
2019-04-22T14:09:33.668Z,29.40
2019-04-22T14:12:05.722Z,29.50
2019-04-22T14:14:33.714Z,29.60
2019-04-22T14:17:04.838Z,29.70
2019-04-22T14:19:34.042Z,29.80
2019-04-22T14:22:03.966Z,30.00
2019-04-22T14:24:32.549Z,30.10
2019-04-22T14:27:17.476Z,29.90
2019-04-22T14:29:33.564Z,29.70
2019-04-22T14:32:11.361Z,29.60
2019-04-22T14:34:36.491Z,29.50
2019-04-22T14:37:07.028Z,29.40
2019-04-22T14:39:37.969Z,29.40
2019-04-22T14:42:33.445Z,29.40
2019-04-22T14:47:34.703Z,29.20
2019-04-22T14:50:09.397Z,29.10
2019-04-22T14:52:33.521Z,28.90
2019-04-22T14:54:54.079Z,28.80
2019-04-22T14:57:17.049Z,28.80
2019-04-22T14:59:46.145Z,28.80
2019-04-22T15:02:16.019Z,28.60
2019-04-22T15:04:45.902Z,28.40
2019-04-22T15:07:16.846Z,28.10
2019-04-22T15:09:46.216Z,27.80
2019-04-22T15:12:28.722Z,27.60
2019-04-22T15:14:51.178Z,27.50
2019-04-22T15:17:24.979Z,27.40
2019-04-22T15:20:03.705Z,27.20
2019-04-22T15:22:34.590Z,27.00
2019-04-22T15:25:04.871Z,27.00
2019-04-22T15:27:35.180Z,27.30
2019-04-22T15:30:05.943Z,27.70
2019-04-22T15:32:35.708Z,28.00
2019-04-22T15:35:07.223Z,28.30
2019-04-22T15:37:39.258Z,28.20
2019-04-22T15:40:08.912Z,28.10
2019-04-22T15:42:41.212Z,28.00
2019-04-22T15:45:08.836Z,27.70
2019-04-22T15:47:37.805Z,27.60
2019-04-22T15:50:08.039Z,27.60
2019-04-22T15:52:44.090Z,27.40
2019-04-22T15:55:12.507Z,27.10
2019-04-22T15:57:45.648Z,26.70
2019-04-22T16:00:29.694Z,26.40
2019-04-22T16:02:49.879Z,26.20
2019-04-22T16:05:22.507Z,26.00
2019-04-22T16:07:53.018Z,26.00
2019-04-22T16:10:23.965Z,25.90
2019-04-22T16:13:03.512Z,25.70
2019-04-22T16:15:26.767Z,25.50
2019-04-22T16:17:55.457Z,25.40
2019-04-22T16:20:30.078Z,25.30
2019-04-22T16:23:20.839Z,25.20
2019-04-22T16:25:53.379Z,25.10
2019-04-22T16:28:22.192Z,25.00
2019-04-22T16:30:53.241Z,24.90
2019-04-22T16:33:23.365Z,24.80
2019-04-22T16:35:53.128Z,24.80
2019-04-22T16:38:22.945Z,24.80
2019-04-22T16:40:54.854Z,24.70
2019-04-22T16:43:28.764Z,24.60
2019-04-22T16:45:57.966Z,24.50
2019-04-22T16:48:29.549Z,24.50
2019-04-22T16:51:02.532Z,24.40
2019-04-22T16:53:32.221Z,24.40
2019-04-22T16:56:00.705Z,24.30
2019-04-22T16:58:30.447Z,24.20
2019-04-22T17:01:02.991Z,24.20
2019-04-22T17:03:54.494Z,24.20
2019-04-22T17:06:27.548Z,24.10
2019-04-22T17:08:57.144Z,24.00
2019-04-22T17:11:25.872Z,24.00
2019-04-22T17:13:57.303Z,23.90
2019-04-22T17:16:26.120Z,23.90
2019-04-22T17:18:56.485Z,23.90
2019-04-22T17:21:25.877Z,23.90
2019-04-22T17:23:55.845Z,23.90
2019-04-22T17:26:26.504Z,23.80
2019-04-22T17:28:57.586Z,23.70
2019-04-22T17:31:26.886Z,23.70
2019-04-22T17:33:56.995Z,23.60
2019-04-22T17:36:26.523Z,23.60
2019-04-22T17:39:12.850Z,23.50
2019-04-22T17:41:45.122Z,23.40
2019-04-22T17:44:31.105Z,23.40
2019-04-22T17:46:48.342Z,23.30
2019-04-22T17:49:34.354Z,23.20
2019-04-22T17:52:17.374Z,23.20
2019-04-22T17:54:45.812Z,23.10
2019-04-22T17:57:15.368Z,23.10
2019-04-22T17:59:46.602Z,22.90
2019-04-22T18:02:15.611Z,22.80
2019-04-22T18:04:40.159Z,22.80
2019-04-22T18:07:29.849Z,22.70
2019-04-22T18:12:33.591Z,22.60
2019-04-22T18:17:30.583Z,22.40
2019-04-22T18:19:53.057Z,22.30
2019-04-22T18:22:23.107Z,22.30
2019-04-22T18:24:58.373Z,22.10
2019-04-22T18:27:49.063Z,22.00
2019-04-22T18:30:02.251Z,22.00
2019-04-22T18:32:38.084Z,21.90
2019-04-22T18:35:07.999Z,21.80
2019-04-22T18:37:42.462Z,21.70
2019-04-22T18:40:14.991Z,21.60
2019-04-22T18:42:45.690Z,21.60
2019-04-22T18:45:29.788Z,21.50
2019-04-22T18:47:38.760Z,21.40
2019-04-22T18:50:08.693Z,21.30
2019-04-22T18:52:47.965Z,21.20
2019-04-22T18:55:26.854Z,21.10
2019-04-22T18:58:03.001Z,21.10
2019-04-22T19:00:21.506Z,21.00
2019-04-22T19:02:56.836Z,20.90
2019-04-22T19:05:34.746Z,20.80
2019-04-22T19:08:18.209Z,20.70
2019-04-22T19:11:04.972Z,20.60
2019-04-22T19:13:49.005Z,20.60
2019-04-22T19:15:53.887Z,20.50
2019-04-22T19:18:27.047Z,20.40
2019-04-22T19:20:53.478Z,20.40
2019-04-22T19:23:18.043Z,20.30
2019-04-22T19:25:42.339Z,20.20
2019-04-22T19:28:31.924Z,20.20
2019-04-22T19:30:56.770Z,20.20
2019-04-22T19:33:29.823Z,20.10
2019-04-22T19:35:49.126Z,20.00
2019-04-22T19:38:16.392Z,20.00
2019-04-22T19:43:32.686Z,19.80
2019-04-22T19:46:02.043Z,19.80
2019-04-22T19:48:50.100Z,19.70
2019-04-22T19:51:12.780Z,19.70
2019-04-22T19:53:42.273Z,19.60
2019-04-22T19:56:06.151Z,19.60
2019-04-22T19:58:36.042Z,19.50
2019-04-22T20:01:16.188Z,19.50
2019-04-22T20:04:16.566Z,19.30
2019-04-22T20:06:38.126Z,19.30
2019-04-22T20:09:13.699Z,19.30
2019-04-22T20:11:43.870Z,19.20
2019-04-22T20:14:18.083Z,19.10
2019-04-22T20:16:38.119Z,19.10
2019-04-22T20:19:21.894Z,19.10
2019-04-22T20:21:50.109Z,19.00
2019-04-22T20:24:06.695Z,18.90
2019-04-22T20:26:51.326Z,18.90
2019-04-22T20:29:29.141Z,18.90
2019-04-22T20:31:56.146Z,18.80
2019-04-22T20:34:26.672Z,18.80
2019-04-22T20:37:03.709Z,18.70
2019-04-22T20:39:20.611Z,18.60
2019-04-22T20:42:03.181Z,18.60
2019-04-22T20:44:32.360Z,18.50
2019-04-22T20:46:56.136Z,18.50
2019-04-22T20:49:32.196Z,18.40
2019-04-22T20:54:33.341Z,18.30
2019-04-22T20:56:57.792Z,18.20
2019-04-22T20:59:30.122Z,18.10
2019-04-22T21:01:57.980Z,18.10
2019-04-22T21:04:24.821Z,18.00
2019-04-22T21:07:03.751Z,18.00
2019-04-22T21:09:35.522Z,17.90
2019-04-22T21:11:56.682Z,17.80
2019-04-22T21:14:32.448Z,17.70
2019-04-22T21:17:15.666Z,17.70
2019-04-22T21:19:47.975Z,17.70
2019-04-22T21:22:16.460Z,17.60
2019-04-22T21:24:42.129Z,17.60
2019-04-22T21:27:17.047Z,17.50
2019-04-22T21:29:43.544Z,17.50
2019-04-22T21:32:23.938Z,17.40
2019-04-22T21:35:06.674Z,17.30
2019-04-22T21:37:31.922Z,17.30
2019-04-22T21:39:51.831Z,17.30
2019-04-22T21:42:28.512Z,17.20
2019-04-22T21:44:55.738Z,17.20
2019-04-22T21:47:42.943Z,17.10
2019-04-22T21:50:21.359Z,17.10
2019-04-22T21:52:33.247Z,17.00
2019-04-22T21:55:13.131Z,16.90
2019-04-22T21:58:02.633Z,16.90
2019-04-22T22:03:06.554Z,16.80
2019-04-22T22:05:28.915Z,16.70
2019-04-22T22:07:55.854Z,16.60
2019-04-22T22:10:40.259Z,16.60
2019-04-22T22:13:16.980Z,16.50
2019-04-22T22:15:49.292Z,16.50
2019-04-22T22:18:12.271Z,16.40
2019-04-22T22:20:53.782Z,16.40
2019-04-22T22:23:25.234Z,16.30
2019-04-22T22:25:47.697Z,16.30
2019-04-22T22:28:41.690Z,16.20
2019-04-22T22:34:04.106Z,16.00
2019-04-22T22:36:26.752Z,16.00
2019-04-22T22:38:54.030Z,16.00
2019-04-22T22:41:15.995Z,15.90
2019-04-22T22:43:50.525Z,15.80
2019-04-22T22:46:29.232Z,15.80
2019-04-22T22:49:09.857Z,15.80
2019-04-22T22:51:51.388Z,15.70
2019-04-22T22:54:12.069Z,15.60
2019-04-22T22:56:46.901Z,15.60
2019-04-22T22:59:10.865Z,15.50
2019-04-22T23:01:39.586Z,15.40
2019-04-22T23:04:16.497Z,15.40
2019-04-22T23:06:45.504Z,15.30
2019-04-22T23:09:14.516Z,15.30
2019-04-22T23:14:18.376Z,15.10
2019-04-22T23:16:33.922Z,15.00
2019-04-22T23:19:04.488Z,15.00
2019-04-22T23:21:39.737Z,15.00
2019-04-22T23:24:21.291Z,14.90
2019-04-22T23:26:53.974Z,14.90
2019-04-22T23:29:25.333Z,14.90
2019-04-22T23:31:59.702Z,14.90
2019-04-22T23:34:32.866Z,14.80
2019-04-22T23:37:10.391Z,14.80
2019-04-22T23:39:54.755Z,14.80
2019-04-22T23:42:23.526Z,14.70
2019-04-22T23:44:56.613Z,14.70
2019-04-22T23:47:17.706Z,14.70
2019-04-22T23:49:55.307Z,14.60
2019-04-22T23:52:24.361Z,14.60
2019-04-22T23:55:04.942Z,14.50
2019-04-22T23:57:33.079Z,14.50
